createdAt,value
2018-08-06T00:02:27.111Z,8.73
2018-08-06T00:04:55.228Z,8.93
2018-08-06T00:07:23.524Z,8.93
2018-08-06T00:09:51.592Z,10.60
2018-08-06T00:12:19.551Z,9.67
2018-08-06T00:14:47.439Z,9.37
2018-08-06T00:17:15.446Z,9.47
2018-08-06T00:19:43.499Z,9.50
2018-08-06T00:22:14.409Z,9.57
2018-08-06T00:24:42.226Z,8.87
2018-08-06T00:27:10.284Z,8.13
2018-08-06T00:29:38.269Z,8.53
2018-08-06T00:32:06.251Z,8.80
2018-08-06T00:34:34.186Z,8.27
2018-08-06T00:37:02.244Z,8.60
2018-08-06T00:39:30.238Z,7.97
2018-08-06T00:41:58.169Z,8.33
2018-08-06T00:44:26.580Z,8.27
2018-08-06T00:46:54.538Z,8.33
2018-08-06T00:49:22.451Z,7.63
2018-08-06T00:51:50.911Z,7.73
2018-08-06T00:54:18.799Z,7.77
2018-08-06T00:56:46.872Z,8.30
2018-08-06T00:59:14.936Z,7.77
2018-08-06T01:01:42.959Z,9.37
2018-08-06T01:04:10.861Z,8.23
2018-08-06T01:06:39.024Z,8.83
2018-08-06T01:09:09.249Z,8.50
2018-08-06T01:11:37.701Z,9.07
2018-08-06T01:14:05.619Z,8.60
2018-08-06T01:16:33.707Z,8.60
2018-08-06T01:19:01.754Z,8.30
2018-08-06T01:21:30.069Z,8.40
2018-08-06T01:23:58.157Z,8.73
2018-08-06T01:26:26.119Z,8.23
2018-08-06T01:28:54.408Z,8.43
2018-08-06T01:31:22.417Z,8.63
2018-08-06T01:33:50.239Z,9.03
2018-08-06T01:36:18.508Z,8.97
2018-08-06T01:38:46.411Z,8.70
2018-08-06T01:41:14.363Z,8.77
2018-08-06T01:43:42.658Z,8.90
2018-08-06T01:46:10.643Z,9.17
2018-08-06T01:48:38.551Z,9.27
2018-08-06T01:51:06.682Z,10.13
2018-08-06T01:53:34.556Z,11.10
2018-08-06T01:56:02.585Z,10.60
2018-08-06T01:58:31.135Z,10.90
2018-08-06T02:00:59.104Z,10.03
2018-08-06T02:03:27.124Z,9.60
2018-08-06T02:05:55.526Z,10.23
2018-08-06T02:08:23.581Z,9.33
2018-08-06T02:10:51.554Z,9.27
2018-08-06T02:13:19.716Z,9.60
2018-08-06T02:15:47.787Z,9.77
2018-08-06T02:18:15.775Z,9.33
2018-08-06T02:20:44.012Z,9.63
2018-08-06T02:23:11.876Z,10.00
2018-08-06T02:25:39.784Z,9.87
2018-08-06T02:28:07.640Z,9.37
2018-08-06T02:30:35.458Z,10.23
2018-08-06T02:33:03.393Z,9.70
2018-08-06T02:35:31.564Z,9.50
2018-08-06T02:37:59.443Z,10.23
2018-08-06T02:40:27.478Z,9.83
2018-08-06T02:42:55.382Z,10.43
2018-08-06T02:45:23.275Z,10.47
2018-08-06T02:47:51.139Z,10.07
2018-08-06T02:50:19.635Z,10.27
2018-08-06T02:52:47.545Z,10.50
2018-08-06T02:55:16.196Z,10.63
2018-08-06T02:57:44.227Z,11.13
2018-08-06T03:00:14.378Z,10.00
2018-08-06T03:02:43.722Z,9.73
2018-08-06T03:05:13.687Z,10.47
2018-08-06T03:07:42.943Z,9.77
2018-08-06T03:10:11.206Z,9.83
2018-08-06T03:12:39.260Z,9.27
2018-08-06T03:15:08.635Z,9.90
2018-08-06T03:17:36.833Z,9.53
2018-08-06T03:20:06.219Z,10.20
2018-08-06T03:22:34.215Z,10.20
2018-08-06T03:25:02.341Z,10.10
2018-08-06T03:27:30.570Z,10.57
2018-08-06T03:29:58.529Z,9.80
2018-08-06T03:32:26.353Z,9.87
2018-08-06T03:34:55.018Z,9.30
2018-08-06T03:37:23.172Z,9.50
2018-08-06T03:39:51.106Z,9.70
2018-08-06T03:42:19.551Z,9.27
2018-08-06T03:44:47.578Z,9.27
2018-08-06T03:47:15.410Z,9.27
2018-08-06T03:49:43.440Z,10.43
2018-08-06T03:52:11.343Z,8.80
2018-08-06T03:54:39.322Z,9.57
2018-08-06T03:57:07.418Z,9.10
2018-08-06T03:59:35.545Z,8.57
2018-08-06T04:02:03.966Z,9.00
2018-08-06T04:04:31.986Z,9.00
2018-08-06T04:07:00.047Z,8.87
2018-08-06T04:09:28.373Z,8.03
2018-08-06T04:11:56.430Z,8.63
2018-08-06T04:14:25.630Z,9.30
2018-08-06T04:16:54.003Z,8.33
2018-08-06T04:19:21.972Z,8.67
2018-08-06T04:21:49.752Z,8.47
2018-08-06T04:24:17.861Z,9.00
2018-08-06T04:26:45.881Z,8.35
2018-08-06T04:29:13.824Z,8.20
2018-08-06T04:31:41.889Z,7.75
2018-08-06T04:34:09.771Z,9.10
2018-08-06T04:36:37.739Z,7.97
2018-08-06T04:39:06.901Z,8.05
2018-08-06T04:41:35.027Z,8.43
2018-08-06T04:44:02.959Z,8.55
2018-08-06T04:46:31.280Z,9.28
2018-08-06T04:48:59.192Z,8.93
2018-08-06T04:51:27.220Z,8.95
2018-08-06T04:53:55.888Z,9.28
2018-08-06T04:56:24.103Z,8.98
2018-08-06T04:58:52.227Z,8.45
2018-08-06T05:01:20.287Z,7.92
2018-08-06T05:03:48.264Z,8.73
2018-08-06T05:06:16.202Z,7.97
2018-08-06T05:08:44.488Z,8.20
2018-08-06T05:11:12.538Z,8.00
2018-08-06T05:13:40.567Z,8.48
2018-08-06T05:16:09.115Z,8.35
2018-08-06T05:18:37.111Z,7.50
2018-08-06T05:21:05.288Z,7.85
2018-08-06T05:23:40.470Z,7.90
2018-08-06T05:26:08.764Z,7.78
2018-08-06T05:28:37.214Z,7.70
2018-08-06T05:31:05.957Z,7.67
2018-08-06T05:33:33.814Z,8.55
2018-08-06T05:36:01.721Z,7.75
2018-08-06T05:38:29.918Z,7.50
2018-08-06T05:40:57.911Z,7.62
2018-08-06T05:43:25.973Z,8.53
2018-08-06T05:45:53.911Z,7.67
2018-08-06T05:48:21.764Z,7.17
2018-08-06T05:50:49.589Z,7.70
2018-08-06T05:53:17.443Z,7.83
2018-08-06T05:55:45.340Z,8.10
2018-08-06T05:58:13.183Z,8.35
2018-08-06T06:00:40.964Z,7.70
2018-08-06T06:03:08.814Z,7.95
2018-08-06T06:05:36.591Z,9.00
2018-08-06T06:08:05.088Z,7.80
2018-08-06T06:10:33.075Z,8.80
2018-08-06T06:13:01.124Z,8.60
2018-08-06T06:15:29.299Z,8.73
2018-08-06T06:17:57.098Z,9.60
2018-08-06T06:20:24.981Z,8.90
2018-08-06T06:22:53.183Z,8.85
2018-08-06T06:25:21.147Z,8.65
2018-08-06T06:27:49.094Z,9.48
2018-08-06T06:30:17.726Z,8.93
2018-08-06T06:32:45.683Z,8.38
2018-08-06T06:35:14.092Z,9.23
2018-08-06T06:37:42.749Z,9.25
2018-08-06T06:40:10.801Z,8.95
2018-08-06T06:42:38.718Z,8.53
2018-08-06T06:45:08.258Z,8.50
2018-08-06T06:47:36.174Z,9.18
2018-08-06T06:50:04.432Z,8.75
2018-08-06T06:52:32.809Z,8.85
2018-08-06T06:55:00.522Z,9.10
2018-08-06T06:57:28.564Z,9.33
2018-08-06T06:59:56.597Z,8.60
2018-08-06T07:02:24.449Z,9.03
2018-08-06T07:04:52.623Z,9.03
2018-08-06T07:07:20.515Z,8.98
2018-08-06T07:09:48.385Z,8.23
2018-08-06T07:12:16.302Z,8.80
2018-08-06T07:14:44.710Z,8.43
2018-08-06T07:17:12.600Z,8.55
2018-08-06T07:19:40.466Z,8.20
2018-08-06T07:22:08.996Z,8.18
2018-08-06T07:24:36.840Z,8.00
2018-08-06T07:27:04.809Z,7.75
2018-08-06T07:29:33.227Z,8.23
2018-08-06T07:32:01.110Z,8.10
2018-08-06T07:34:28.994Z,7.37
2018-08-06T07:36:57.431Z,8.10
2018-08-06T07:39:25.216Z,8.03
2018-08-06T07:41:52.949Z,7.40
2018-08-06T07:44:20.866Z,7.53
2018-08-06T07:46:48.733Z,8.13
2018-08-06T07:49:16.629Z,7.58
2018-08-06T07:51:44.552Z,7.80
2018-08-06T07:54:12.454Z,7.58
2018-08-06T07:56:40.432Z,7.10
2018-08-06T07:59:08.302Z,7.08
2018-08-06T08:01:36.118Z,7.72
2018-08-06T08:04:04.119Z,6.85
2018-08-06T08:06:32.133Z,7.12
2018-08-06T08:08:59.982Z,7.40
2018-08-06T08:11:27.844Z,7.55
2018-08-06T08:13:55.942Z,7.35
2018-08-06T08:16:23.772Z,7.95
2018-08-06T08:18:51.739Z,6.97
2018-08-06T08:21:20.200Z,8.15
2018-08-06T08:23:48.079Z,7.65
2018-08-06T08:26:16.173Z,11.03
2018-08-06T08:28:44.147Z,7.15
2018-08-06T08:31:12.952Z,7.65
2018-08-06T08:33:40.920Z,7.50
2018-08-06T08:36:08.772Z,6.72
2018-08-06T08:38:36.671Z,7.75
2018-08-06T08:41:04.744Z,7.28
2018-08-06T08:43:32.758Z,6.95
2018-08-06T08:46:00.733Z,7.37
2018-08-06T08:48:28.675Z,8.00
2018-08-06T08:50:56.595Z,6.78
2018-08-06T08:53:24.622Z,7.90
2018-08-06T08:55:52.556Z,6.87
2018-08-06T08:58:20.400Z,7.08
2018-08-06T09:00:48.200Z,7.40
2018-08-06T09:03:16.146Z,7.15
2018-08-06T09:05:44.524Z,6.17
2018-08-06T09:08:12.439Z,7.05
2018-08-06T09:10:40.344Z,6.45
2018-08-06T09:13:08.247Z,6.70
2018-08-06T09:15:36.139Z,6.45
2018-08-06T09:18:04.122Z,6.22
2018-08-06T09:20:32.098Z,7.42
2018-08-06T09:22:59.931Z,7.00
2018-08-06T09:25:27.819Z,6.62
2018-08-06T09:27:55.694Z,6.53
2018-08-06T09:30:24.444Z,6.92
2018-08-06T09:32:53.603Z,7.20
2018-08-06T09:35:21.922Z,7.25
2018-08-06T09:37:50.564Z,6.40
2018-08-06T09:40:19.594Z,6.30
2018-08-06T09:42:48.326Z,6.33
2018-08-06T09:45:17.441Z,5.75
2018-08-06T09:47:46.694Z,6.80
2018-08-06T09:50:15.425Z,6.08
2018-08-06T09:52:44.296Z,6.60
2018-08-06T09:55:17.186Z,6.80
2018-08-06T09:57:45.246Z,6.37
2018-08-06T10:00:23.526Z,6.35
2018-08-06T10:02:52.095Z,7.72
2018-08-06T10:05:21.063Z,6.30
2018-08-06T10:07:49.285Z,6.47
2018-08-06T10:10:17.157Z,6.20
2018-08-06T10:12:45.590Z,5.83
2018-08-06T10:15:14.324Z,6.17
2018-08-06T10:17:43.217Z,5.78
2018-08-06T10:20:13.238Z,6.42
2018-08-06T10:22:41.594Z,6.40
2018-08-06T10:25:11.118Z,5.72
2018-08-06T10:27:39.917Z,6.42
2018-08-06T10:30:23.526Z,6.40
2018-08-06T10:32:51.336Z,5.45
2018-08-06T10:35:19.884Z,6.62
2018-08-06T10:37:47.994Z,6.12
2018-08-06T10:40:20.957Z,5.65
2018-08-06T10:42:49.035Z,5.90
2018-08-06T10:45:18.996Z,5.60
2018-08-06T10:47:47.296Z,5.55
2018-08-06T10:50:15.256Z,5.97
2018-08-06T10:52:43.175Z,6.30
2018-08-06T10:55:11.516Z,6.42
2018-08-06T10:57:41.159Z,6.20
2018-08-06T11:00:22.174Z,6.00
2018-08-06T11:02:50.824Z,6.03
2018-08-06T11:05:19.389Z,8.03
2018-08-06T11:07:47.185Z,6.53
2018-08-06T11:10:16.583Z,8.00
2018-08-06T11:12:44.419Z,6.72
2018-08-06T11:15:22.201Z,5.40
2018-08-06T11:17:50.296Z,5.17
2018-08-06T11:20:19.006Z,4.83
2018-08-06T11:22:47.374Z,4.53
2018-08-06T11:25:16.792Z,5.03
2018-08-06T11:27:44.792Z,4.65
2018-08-06T11:30:15.784Z,4.58
2018-08-06T11:32:44.730Z,5.65
2018-08-06T11:35:14.021Z,5.28
2018-08-06T11:37:42.347Z,5.10
2018-08-06T11:40:11.287Z,5.17
2018-08-06T11:42:39.956Z,5.25
2018-08-06T11:45:09.497Z,4.35
2018-08-06T11:47:37.441Z,4.37
2018-08-06T11:50:05.839Z,5.08
2018-08-06T11:52:34.103Z,4.80
2018-08-06T11:55:02.140Z,4.85
2018-08-06T11:57:30.072Z,5.20
2018-08-06T11:59:58.340Z,4.50
2018-08-06T12:02:26.702Z,4.22
2018-08-06T12:04:54.623Z,4.65
2018-08-06T12:07:23.140Z,4.60
2018-08-06T12:09:51.106Z,4.50
2018-08-06T12:12:19.536Z,4.80
2018-08-06T12:14:48.791Z,4.58
2018-08-06T12:17:16.754Z,5.03
2018-08-06T12:19:44.603Z,8.45
2018-08-06T12:22:12.728Z,4.65
2018-08-06T12:24:40.606Z,5.28
2018-08-06T12:27:08.589Z,5.15
2018-08-06T12:29:36.424Z,4.95
2018-08-06T12:32:04.392Z,5.03
2018-08-06T12:34:32.274Z,4.50
2018-08-06T12:37:00.596Z,4.53
2018-08-06T12:39:28.542Z,5.55
2018-08-06T12:41:56.444Z,5.22
2018-08-06T12:44:24.388Z,4.97
2018-08-06T12:46:52.335Z,5.10
2018-08-06T12:49:20.339Z,4.70
2018-08-06T12:51:48.850Z,5.12
2018-08-06T12:54:16.726Z,5.50
2018-08-06T12:56:44.623Z,5.37
2018-08-06T12:59:12.543Z,4.70
2018-08-06T13:01:40.402Z,4.67
2018-08-06T13:04:08.152Z,4.97
2018-08-06T13:06:36.604Z,5.60
2018-08-06T13:09:07.467Z,5.10
2018-08-06T13:11:35.268Z,5.47
2018-08-06T13:14:03.666Z,5.05
2018-08-06T13:16:31.547Z,5.15
2018-08-06T13:18:59.468Z,5.50
2018-08-06T13:21:27.868Z,4.95
2018-08-06T13:23:55.685Z,5.72
2018-08-06T13:26:23.566Z,4.90
2018-08-06T13:28:51.855Z,5.45
2018-08-06T13:31:19.771Z,5.10
2018-08-06T13:33:47.460Z,4.78
2018-08-06T13:36:15.383Z,4.83
2018-08-06T13:38:43.388Z,4.90
2018-08-06T13:41:11.233Z,5.33
2018-08-06T13:43:39.084Z,5.10
2018-08-06T13:46:07.284Z,5.03
2018-08-06T13:48:35.134Z,5.00
2018-08-06T13:51:03.490Z,5.50
2018-08-06T13:53:31.471Z,5.03
2018-08-06T13:55:59.364Z,5.05
2018-08-06T13:58:27.383Z,5.78
2018-08-06T14:00:55.482Z,5.35
2018-08-06T14:03:23.394Z,5.25
2018-08-06T14:05:51.901Z,5.22
2018-08-06T14:08:19.815Z,5.25
2018-08-06T14:10:47.841Z,5.28
2018-08-06T14:13:16.278Z,5.12
2018-08-06T14:15:44.356Z,5.17
2018-08-06T14:18:13.493Z,5.20
2018-08-06T14:20:41.670Z,5.58
2018-08-06T14:23:09.738Z,5.10
2018-08-06T14:25:37.778Z,5.40
2018-08-06T14:28:05.764Z,5.30
2018-08-06T14:30:33.733Z,5.08
2018-08-06T14:33:01.755Z,4.92
2018-08-06T14:35:30.783Z,5.33
2018-08-06T14:37:58.810Z,5.53
2018-08-06T14:40:26.724Z,5.83
2018-08-06T14:42:55.326Z,5.60
2018-08-06T14:45:23.214Z,5.42
2018-08-06T14:47:51.130Z,5.15
2018-08-06T14:50:19.386Z,4.95
2018-08-06T14:52:47.348Z,5.20
2018-08-06T14:55:15.322Z,5.15
2018-08-06T14:57:43.239Z,5.25
2018-08-06T15:00:17.934Z,5.00
2018-08-06T15:02:46.639Z,6.00
2018-08-06T15:05:14.434Z,5.05
2018-08-06T15:07:42.704Z,5.03
2018-08-06T15:10:11.680Z,6.50
2018-08-06T15:12:39.844Z,5.92
2018-08-06T15:15:13.485Z,5.37
2018-08-06T15:17:55.206Z,5.42
2018-08-06T15:20:23.998Z,6.30
2018-08-06T15:22:56.193Z,6.00
2018-08-06T15:25:24.873Z,5.28
2018-08-06T15:27:57.421Z,5.50
2018-08-06T15:30:25.932Z,5.05
2018-08-06T15:32:55.652Z,5.17
2018-08-06T15:35:32.737Z,4.80
2018-08-06T15:38:02.179Z,5.22
2018-08-06T15:40:30.663Z,5.72
2018-08-06T15:43:00.896Z,6.10
2018-08-06T15:45:30.089Z,5.83
2018-08-06T15:47:58.592Z,7.95
2018-08-06T15:50:27.306Z,6.67
2018-08-06T15:52:56.176Z,6.70
2018-08-06T15:55:30.604Z,7.03
2018-08-06T15:57:58.773Z,7.30
2018-08-06T16:00:27.041Z,8.05
2018-08-06T16:02:55.443Z,7.20
2018-08-06T16:05:24.676Z,6.67
2018-08-06T16:07:52.978Z,6.47
2018-08-06T16:10:21.777Z,6.72
2018-08-06T16:12:51.005Z,6.40
2018-08-06T16:15:24.681Z,6.72
2018-08-06T16:17:52.957Z,6.55
2018-08-06T16:20:21.228Z,6.40
2018-08-06T16:22:50.454Z,6.30
2018-08-06T16:25:19.739Z,6.50
2018-08-06T16:27:48.030Z,6.12
2018-08-06T16:30:22.966Z,7.75
2018-08-06T16:32:51.820Z,6.70
2018-08-06T16:35:21.446Z,7.08
2018-08-06T16:37:51.382Z,6.08
2018-08-06T16:40:19.639Z,6.65
2018-08-06T16:42:48.517Z,6.65
2018-08-06T16:45:16.778Z,6.62
2018-08-06T16:47:48.677Z,6.58
2018-08-06T16:50:18.352Z,7.10
2018-08-06T16:52:46.812Z,8.33
2018-08-06T16:55:14.809Z,7.37
2018-08-06T16:57:44.417Z,8.35
2018-08-06T17:00:15.579Z,10.20
2018-08-06T17:02:44.072Z,12.00
2018-08-06T17:05:17.340Z,11.88
2018-08-06T17:07:46.731Z,10.53
2018-08-06T17:10:18.490Z,10.72
2018-08-06T17:12:49.270Z,9.75
2018-08-06T17:15:18.584Z,8.68
2018-08-06T17:17:49.045Z,10.20
2018-08-06T17:20:19.122Z,9.80
2018-08-06T17:22:48.849Z,9.15
2018-08-06T17:25:17.355Z,8.48
2018-08-06T17:27:46.603Z,9.83
2018-08-06T17:30:19.568Z,10.70
2018-08-06T17:32:48.516Z,10.95
2018-08-06T17:35:20.152Z,11.38
2018-08-06T17:37:49.588Z,8.80
2018-08-06T17:40:18.629Z,8.58
2018-08-06T17:42:53.862Z,12.07
2018-08-06T17:45:25.768Z,9.43
2018-08-06T17:47:54.031Z,10.05
2018-08-06T17:50:23.401Z,12.03
2018-08-06T17:52:56.265Z,8.05
2018-08-06T17:55:24.641Z,9.68
2018-08-06T17:57:53.881Z,6.35
2018-08-06T18:00:22.308Z,7.17
2018-08-06T18:02:50.828Z,8.90
2018-08-06T18:05:22.808Z,8.55
2018-08-06T18:07:51.258Z,8.25
2018-08-06T18:10:24.912Z,7.92
2018-08-06T18:12:53.343Z,7.65
2018-08-06T18:15:22.259Z,7.37
2018-08-06T18:17:51.045Z,6.95
2018-08-06T18:20:19.533Z,7.80
2018-08-06T18:22:48.793Z,14.40
2018-08-06T18:25:18.326Z,10.58
2018-08-06T18:27:47.836Z,10.13
2018-08-06T18:30:18.882Z,8.28
2018-08-06T18:32:47.457Z,8.00
2018-08-06T18:35:17.562Z,7.83
2018-08-06T18:37:45.715Z,7.62
2018-08-06T18:40:14.778Z,10.03
2018-08-06T18:42:43.228Z,10.30
2018-08-06T18:45:13.849Z,10.63
2018-08-06T18:47:42.648Z,10.50
2018-08-06T18:50:12.008Z,8.70
2018-08-06T18:52:40.308Z,8.78
2018-08-06T18:55:10.338Z,8.43
2018-08-06T18:57:38.436Z,9.70
2018-08-06T19:00:08.872Z,9.05
2018-08-06T19:02:37.339Z,8.55
2018-08-06T19:05:05.957Z,7.92
2018-08-06T19:07:33.787Z,8.55
2018-08-06T19:10:02.419Z,8.50
2018-08-06T19:12:35.955Z,7.70
2018-08-06T19:15:04.545Z,9.00
2018-08-06T19:17:32.602Z,8.38
2018-08-06T19:20:00.563Z,11.25
2018-08-06T19:22:28.901Z,12.47
2018-08-06T19:25:02.139Z,10.48
2018-08-06T19:27:30.167Z,11.33
2018-08-06T19:29:58.243Z,13.40
2018-08-06T19:32:26.188Z,12.68
2018-08-06T19:34:58.555Z,17.62
2018-08-06T19:37:32.055Z,12.70
2018-08-06T19:40:00.091Z,10.45
2018-08-06T19:42:32.619Z,9.30
2018-08-06T19:45:00.974Z,9.60
2018-08-06T19:47:28.936Z,14.60
2018-08-06T19:51:01.239Z,10.98
2018-08-06T19:53:29.204Z,12.33
2018-08-06T19:56:02.808Z,11.65
2018-08-06T19:58:30.668Z,9.85
2018-08-06T20:00:58.720Z,8.80
2018-08-06T20:03:26.756Z,9.18
2018-08-06T20:05:54.708Z,10.18
2018-08-06T20:08:22.674Z,9.98
2018-08-06T20:10:50.642Z,9.78
2018-08-06T20:13:19.801Z,7.58
2018-08-06T20:15:47.878Z,8.13
2018-08-06T20:18:16.338Z,8.65
2018-08-06T20:20:44.233Z,7.55
2018-08-06T20:23:12.234Z,8.40
2018-08-06T20:25:40.347Z,8.23
2018-08-06T20:28:08.277Z,7.28
2018-08-06T20:30:36.504Z,7.10
2018-08-06T20:33:05.207Z,7.10
2018-08-06T20:35:33.205Z,7.65
2018-08-06T20:38:01.313Z,6.92
2018-08-06T20:40:29.517Z,7.40
2018-08-06T20:42:57.847Z,7.20
2018-08-06T20:45:26.622Z,7.05
2018-08-06T20:47:54.955Z,7.80
2018-08-06T20:50:23.930Z,7.62
2018-08-06T20:52:52.962Z,9.58
2018-08-06T20:55:22.215Z,9.43
2018-08-06T20:57:50.601Z,9.75
2018-08-06T21:00:22.703Z,8.80
2018-08-06T21:02:51.259Z,8.75
2018-08-06T21:05:19.524Z,9.20
2018-08-06T21:07:47.853Z,8.23
2018-08-06T21:10:16.681Z,9.00
2018-08-06T21:12:45.000Z,9.35
2018-08-06T21:15:14.015Z,8.05
2018-08-06T21:17:42.658Z,8.53
2018-08-06T21:20:12.091Z,8.53
2018-08-06T21:22:41.075Z,8.60
2018-08-06T21:25:10.615Z,8.35
2018-08-06T21:27:39.216Z,8.55
2018-08-06T21:30:09.680Z,8.13
2018-08-06T21:32:38.249Z,8.58
2018-08-06T21:35:06.859Z,8.00
2018-08-06T21:37:35.122Z,8.68
2018-08-06T21:40:03.640Z,8.43
2018-08-06T21:42:31.799Z,8.23
2018-08-06T21:44:59.693Z,8.58
2018-08-06T21:47:27.687Z,8.80
2018-08-06T21:49:55.830Z,8.48
2018-08-06T21:52:23.761Z,8.58
2018-08-06T21:54:52.322Z,8.43
2018-08-06T21:57:20.350Z,8.63
2018-08-06T21:59:48.376Z,8.13
2018-08-06T22:02:16.867Z,9.10
2018-08-06T22:04:44.878Z,9.38
2018-08-06T22:07:12.744Z,9.68
2018-08-06T22:09:41.135Z,9.00
2018-08-06T22:12:09.183Z,8.75
2018-08-06T22:14:37.366Z,9.45
2018-08-06T22:17:05.764Z,8.95
2018-08-06T22:19:33.751Z,8.90
2018-08-06T22:22:01.831Z,8.80
2018-08-06T22:24:29.900Z,8.75
2018-08-06T22:26:57.878Z,9.48
2018-08-06T22:29:25.871Z,9.00
2018-08-06T22:31:53.869Z,8.85
2018-08-06T22:34:21.916Z,9.68
2018-08-06T22:36:49.941Z,9.68
2018-08-06T22:39:17.930Z,9.28
2018-08-06T22:41:46.017Z,9.63
2018-08-06T22:44:14.070Z,9.40
2018-08-06T22:46:42.159Z,10.70
2018-08-06T22:49:10.213Z,10.20
2018-08-06T22:51:38.158Z,10.10
2018-08-06T22:54:06.008Z,10.80
2018-08-06T22:56:34.063Z,10.73
2018-08-06T22:59:02.212Z,11.00
2018-08-06T23:01:30.227Z,9.63
2018-08-06T23:03:58.075Z,10.88
2018-08-06T23:06:26.128Z,10.23
2018-08-06T23:08:54.369Z,9.67
2018-08-06T23:11:22.419Z,9.45
2018-08-06T23:13:50.438Z,9.93
2018-08-06T23:16:18.804Z,10.23
2018-08-06T23:18:46.803Z,10.10
2018-08-06T23:21:14.824Z,9.60
2018-08-06T23:23:42.813Z,10.83
2018-08-06T23:26:10.734Z,9.87
2018-08-06T23:28:38.769Z,10.27
2018-08-06T23:31:07.079Z,10.40
2018-08-06T23:33:34.937Z,10.10
2018-08-06T23:36:02.769Z,10.17
2018-08-06T23:38:30.953Z,10.50
2018-08-06T23:40:59.134Z,10.90
2018-08-06T23:43:27.174Z,10.20
2018-08-06T23:45:55.763Z,10.53
2018-08-06T23:48:23.915Z,10.70
2018-08-06T23:50:51.943Z,10.07
2018-08-06T23:53:20.020Z,9.80
2018-08-06T23:55:47.987Z,9.97
2018-08-06T23:58:16.167Z,9.90
